createdAt,value
2018-03-19T00:01:34.394Z,4.95
2018-03-19T00:04:03.289Z,5.25
2018-03-19T00:06:32.282Z,4.68
2018-03-19T00:09:01.424Z,7.03
2018-03-19T00:11:30.340Z,6.00
2018-03-19T00:13:59.364Z,8.25
2018-03-19T00:16:28.334Z,5.53
2018-03-19T00:18:57.334Z,6.03
2018-03-19T00:21:26.455Z,8.27
2018-03-19T00:23:55.355Z,8.38
2018-03-19T00:26:24.277Z,8.15
2018-03-19T00:28:53.413Z,7.15
2018-03-19T00:31:22.328Z,8.35
2018-03-19T00:33:51.299Z,7.35
2018-03-19T00:36:20.322Z,7.12
2018-03-19T00:38:49.752Z,9.02
2018-03-19T00:41:18.874Z,8.73
2018-03-19T00:43:47.780Z,8.55
2018-03-19T00:46:16.682Z,8.55
2018-03-19T00:48:45.828Z,8.35
2018-03-19T00:51:14.744Z,4.93
2018-03-19T00:53:43.655Z,6.25
2018-03-19T00:56:12.747Z,6.62
2018-03-19T00:58:41.702Z,6.43
2018-03-19T01:01:10.622Z,6.03
2018-03-19T01:03:39.560Z,8.05
2018-03-19T01:06:08.601Z,6.93
2018-03-19T01:08:37.526Z,8.30
2018-03-19T01:11:06.427Z,6.30
2018-03-19T01:13:35.368Z,6.90
2018-03-19T01:16:04.277Z,6.35
2018-03-19T01:18:33.204Z,9.45
2018-03-19T01:21:02.129Z,7.43
2018-03-19T01:23:31.144Z,7.22
2018-03-19T01:26:00.191Z,5.37
2018-03-19T01:28:29.152Z,9.98
2018-03-19T01:30:58.056Z,5.97
2018-03-19T01:33:27.124Z,7.40
2018-03-19T01:35:56.066Z,7.03
2018-03-19T01:38:24.993Z,7.28
2018-03-19T01:40:53.933Z,8.02
2018-03-19T01:43:23.096Z,6.57
2018-03-19T01:45:52.186Z,7.87
2018-03-19T01:48:21.086Z,9.45
2018-03-19T01:50:49.996Z,6.43
2018-03-19T01:53:18.954Z,7.60
2018-03-19T01:55:47.892Z,10.10
2018-03-19T01:58:16.833Z,8.00
2018-03-19T02:00:45.777Z,7.15
2018-03-19T02:03:14.701Z,6.90
2018-03-19T02:05:43.901Z,8.50
2018-03-19T02:08:12.852Z,9.23
2018-03-19T02:10:41.812Z,10.00
2018-03-19T02:13:10.786Z,8.50
2018-03-19T02:15:39.704Z,7.07
2018-03-19T02:18:08.636Z,5.43
2018-03-19T02:20:37.605Z,6.80
2018-03-19T02:23:06.556Z,9.25
2018-03-19T02:25:35.489Z,8.80
2018-03-19T02:28:04.453Z,6.93
2018-03-19T02:30:33.362Z,8.02
2018-03-19T02:33:02.377Z,8.82
2018-03-19T02:35:31.316Z,7.22
2018-03-19T02:38:00.255Z,8.38
2018-03-19T02:40:29.176Z,8.43
2018-03-19T02:42:58.139Z,6.50
2018-03-19T02:45:27.171Z,8.85
2018-03-19T02:47:56.335Z,8.93
2018-03-19T02:50:25.256Z,8.70
2018-03-19T02:52:54.188Z,8.65
2018-03-19T02:55:23.151Z,8.25
2018-03-19T02:57:52.072Z,7.47
2018-03-19T03:00:21.052Z,7.12
2018-03-19T03:02:50.079Z,9.10
2018-03-19T03:05:19.032Z,8.43
2018-03-19T03:07:47.971Z,10.10
2018-03-19T03:10:16.996Z,9.45
2018-03-19T03:12:45.948Z,7.37
2018-03-19T03:15:14.985Z,7.80
2018-03-19T03:17:43.961Z,8.60
2018-03-19T03:20:12.884Z,7.90
2018-03-19T03:22:41.808Z,8.15
2018-03-19T03:25:10.765Z,8.85
2018-03-19T03:27:39.675Z,9.10
2018-03-19T03:30:08.925Z,7.20
2018-03-19T03:32:38.001Z,7.97
2018-03-19T03:35:07.036Z,7.87
2018-03-19T03:37:35.968Z,6.97
2018-03-19T03:40:04.932Z,7.00
2018-03-19T03:42:33.975Z,9.07
2018-03-19T03:45:02.959Z,8.02
2018-03-19T03:47:31.910Z,8.95
2018-03-19T03:50:00.864Z,6.72
2018-03-19T03:52:29.812Z,7.28
2018-03-19T03:54:58.783Z,7.75
2018-03-19T03:57:27.701Z,8.02
2018-03-19T03:59:56.662Z,6.50
2018-03-19T04:02:25.568Z,8.27
2018-03-19T04:04:54.500Z,7.40
2018-03-19T04:07:23.680Z,7.82
2018-03-19T04:09:52.626Z,7.07
2018-03-19T04:12:21.768Z,7.30
2018-03-19T04:14:50.730Z,4.90
2018-03-19T04:17:19.661Z,9.70
2018-03-19T04:19:48.624Z,7.05
2018-03-19T04:22:17.572Z,9.80
2018-03-19T04:24:46.520Z,7.75
2018-03-19T04:27:15.482Z,9.60
2018-03-19T04:29:44.464Z,9.40
2018-03-19T04:32:13.396Z,9.27
2018-03-19T04:34:42.439Z,9.30
2018-03-19T04:37:11.636Z,10.55
2018-03-19T04:39:40.648Z,10.32
2018-03-19T04:42:09.568Z,8.10
2018-03-19T04:44:38.476Z,11.10
2018-03-19T04:47:07.839Z,11.57
2018-03-19T04:49:36.788Z,12.18
2018-03-19T04:52:05.716Z,9.35
2018-03-19T04:54:34.695Z,10.38
2018-03-19T04:57:03.663Z,8.77
2018-03-19T04:59:32.628Z,10.90
2018-03-19T05:02:01.651Z,8.38
2018-03-19T05:04:30.837Z,8.25
2018-03-19T05:06:59.767Z,6.28
2018-03-19T05:09:28.927Z,8.43
2018-03-19T05:11:58.136Z,9.43
2018-03-19T05:14:27.278Z,8.65
2018-03-19T05:16:56.415Z,8.70
2018-03-19T05:19:25.356Z,9.68
2018-03-19T05:21:54.298Z,9.25
2018-03-19T05:24:23.267Z,10.02
2018-03-19T05:26:52.196Z,10.25
2018-03-19T05:29:21.158Z,9.98
2018-03-19T05:31:50.322Z,9.02
2018-03-19T05:34:19.535Z,8.18
2018-03-19T05:36:48.474Z,7.72
2018-03-19T05:39:17.431Z,9.07
2018-03-19T05:41:46.420Z,9.25
2018-03-19T05:44:15.352Z,9.30
2018-03-19T05:46:44.307Z,9.68
2018-03-19T05:49:13.237Z,9.70
2018-03-19T05:51:42.245Z,10.05
2018-03-19T05:54:11.234Z,8.15
2018-03-19T05:56:40.352Z,10.20
2018-03-19T05:59:09.704Z,10.20
2018-03-19T06:01:38.709Z,10.57
2018-03-19T06:04:07.657Z,10.63
2018-03-19T06:06:36.948Z,8.38
2018-03-19T06:09:05.907Z,11.88
2018-03-19T06:11:34.846Z,11.52
2018-03-19T06:14:03.818Z,11.12
2018-03-19T06:16:32.774Z,9.20
2018-03-19T06:19:01.744Z,9.82
2018-03-19T06:21:30.698Z,12.10
2018-03-19T06:23:59.889Z,11.23
2018-03-19T06:26:29.056Z,10.32
2018-03-19T06:28:58.026Z,11.48
2018-03-19T06:31:27.006Z,10.52
2018-03-19T06:33:56.199Z,8.73
2018-03-19T06:36:25.156Z,8.27
2018-03-19T06:38:54.085Z,8.05
2018-03-19T06:41:23.040Z,10.88
2018-03-19T06:43:52.109Z,10.00
2018-03-19T06:46:21.065Z,10.70
2018-03-19T06:48:49.989Z,12.25
2018-03-19T06:51:18.955Z,12.60
2018-03-19T06:53:48.279Z,11.48
2018-03-19T06:56:17.206Z,11.70
2018-03-19T06:58:46.133Z,10.10
2018-03-19T07:01:15.091Z,7.22
2018-03-19T07:03:44.016Z,9.23
2018-03-19T07:06:13.077Z,11.07
2018-03-19T07:08:43.112Z,6.68
2018-03-19T07:11:12.062Z,9.57
2018-03-19T07:13:41.036Z,7.12
2018-03-19T07:16:10.239Z,7.68
2018-03-19T07:18:39.194Z,11.63
2018-03-19T07:21:08.157Z,7.47
2018-03-19T07:23:37.289Z,10.30
2018-03-19T07:26:06.271Z,10.23
2018-03-19T07:28:35.413Z,9.90
2018-03-19T07:31:04.523Z,11.95
2018-03-19T07:33:33.673Z,8.45
2018-03-19T07:36:02.828Z,11.25
2018-03-19T07:38:31.752Z,8.18
2018-03-19T07:41:00.805Z,8.98
2018-03-19T07:43:29.950Z,10.27
2018-03-19T07:45:58.891Z,9.27
2018-03-19T07:48:27.856Z,7.87
2018-03-19T07:50:57.022Z,10.32
2018-03-19T07:53:26.611Z,10.45
2018-03-19T07:55:55.566Z,12.45
2018-03-19T07:58:24.536Z,14.38
2018-03-19T08:00:53.569Z,11.25
2018-03-19T08:03:22.563Z,11.98
2018-03-19T08:05:51.499Z,10.13
2018-03-19T08:08:20.476Z,12.37
2018-03-19T08:10:49.684Z,14.60
2018-03-19T08:13:18.669Z,21.33
2018-03-19T08:15:47.630Z,12.23
2018-03-19T08:18:16.717Z,18.27
2018-03-19T08:20:45.645Z,23.42
2018-03-19T08:23:14.592Z,29.70
2018-03-19T08:25:43.546Z,26.30
2018-03-19T08:28:12.475Z,31.23
2018-03-19T08:30:41.436Z,30.98
2018-03-19T08:33:10.434Z,26.73
2018-03-19T08:35:39.589Z,11.55
2018-03-19T08:38:08.550Z,10.20
2018-03-19T08:40:37.544Z,10.85
2018-03-19T08:43:06.501Z,16.83
2018-03-19T08:45:35.565Z,12.30
2018-03-19T08:48:04.862Z,11.90
2018-03-19T08:50:33.767Z,12.45
2018-03-19T08:53:02.823Z,12.75
2018-03-19T08:55:31.776Z,11.30
2018-03-19T08:58:00.831Z,10.10
2018-03-19T09:00:29.817Z,9.57
2018-03-19T09:02:58.848Z,9.57
2018-03-19T09:05:27.774Z,8.60
2018-03-19T09:07:58.243Z,10.77
2018-03-19T09:10:28.741Z,6.87
2018-03-19T09:13:01.651Z,10.10
2018-03-19T09:15:34.435Z,9.75
2018-03-19T09:18:03.431Z,11.32
2018-03-19T09:20:32.521Z,9.35
2018-03-19T09:23:01.464Z,9.98
2018-03-19T09:25:30.438Z,7.93
2018-03-19T09:27:59.379Z,9.88
2018-03-19T09:30:28.318Z,9.52
2018-03-19T09:32:57.301Z,11.27
2018-03-19T09:35:26.262Z,10.15
2018-03-19T09:37:55.657Z,11.65
2018-03-19T09:40:24.658Z,10.68
2018-03-19T09:42:53.594Z,11.32
2018-03-19T09:45:22.540Z,11.43
2018-03-19T09:47:51.526Z,10.07
2018-03-19T09:50:20.481Z,11.20
2018-03-19T09:52:49.454Z,9.30
2018-03-19T09:55:18.432Z,11.80
2018-03-19T09:57:47.403Z,12.27
2018-03-19T10:00:16.698Z,11.98
2018-03-19T10:02:45.767Z,12.30
2018-03-19T10:05:14.777Z,10.25
2018-03-19T10:07:43.705Z,11.35
2018-03-19T10:10:12.675Z,11.20
2018-03-19T10:12:41.621Z,11.85
2018-03-19T10:15:10.716Z,11.32
2018-03-19T10:17:39.694Z,11.40
2018-03-19T10:20:08.635Z,11.45
2018-03-19T10:22:37.657Z,11.23
2018-03-19T10:25:06.746Z,11.65
2018-03-19T10:27:35.740Z,11.32
2018-03-19T10:30:04.633Z,10.52
2018-03-19T10:32:33.622Z,12.35
2018-03-19T10:35:02.633Z,13.23
2018-03-19T10:37:31.599Z,11.75
2018-03-19T10:40:00.563Z,10.43
2018-03-19T10:42:29.538Z,10.32
2018-03-19T10:44:58.494Z,12.00
2018-03-19T10:47:27.477Z,12.70
2018-03-19T10:49:56.600Z,9.43
2018-03-19T10:52:25.679Z,11.02
2018-03-19T10:54:54.633Z,12.48
2018-03-19T10:57:23.650Z,10.57
2018-03-19T10:59:52.598Z,11.45
2018-03-19T11:02:37.296Z,11.68
2018-03-19T11:05:22.061Z,12.55
2018-03-19T11:07:56.821Z,11.90
2018-03-19T11:10:26.620Z,13.18
2018-03-19T11:12:55.544Z,11.18
2018-03-19T11:15:24.513Z,14.52
2018-03-19T11:17:53.473Z,12.73
2018-03-19T11:20:22.458Z,11.00
2018-03-19T11:22:51.407Z,15.15
2018-03-19T11:25:20.454Z,13.23
2018-03-19T11:27:49.419Z,11.80
2018-03-19T11:30:18.518Z,11.75
2018-03-19T11:32:47.474Z,11.85
2018-03-19T11:35:16.419Z,10.30
2018-03-19T11:37:45.349Z,14.10
2018-03-19T11:40:14.294Z,11.52
2018-03-19T11:42:43.284Z,13.32
2018-03-19T11:45:12.314Z,12.48
2018-03-19T11:47:41.258Z,11.65
2018-03-19T11:50:10.362Z,9.65
2018-03-19T11:52:39.315Z,11.05
2018-03-19T11:55:08.215Z,9.65
2018-03-19T11:57:37.149Z,13.02
2018-03-19T12:00:06.078Z,12.27
2018-03-19T12:02:35.064Z,12.10
2018-03-19T12:05:04.066Z,12.95
2018-03-19T12:07:33.238Z,12.37
2018-03-19T12:10:02.177Z,12.52
2018-03-19T12:12:31.134Z,10.23
2018-03-19T12:15:00.057Z,11.23
2018-03-19T12:17:29.043Z,12.32
2018-03-19T12:19:57.981Z,12.55
2018-03-19T12:22:26.906Z,12.85
2018-03-19T12:24:55.877Z,12.00
2018-03-19T12:27:24.824Z,11.12
2018-03-19T12:29:53.763Z,13.43
2018-03-19T12:32:22.708Z,13.20
2018-03-19T12:34:51.643Z,11.85
2018-03-19T12:37:20.883Z,19.83
2018-03-19T12:39:49.938Z,14.07
2018-03-19T12:42:18.863Z,13.75
2018-03-19T12:44:47.874Z,13.75
2018-03-19T12:47:16.830Z,12.10
2018-03-19T12:49:45.855Z,12.82
2018-03-19T12:52:14.861Z,12.95
2018-03-19T12:54:43.888Z,13.35
2018-03-19T12:57:13.037Z,11.65
2018-03-19T12:59:41.952Z,11.88
2018-03-19T13:02:11.038Z,11.30
2018-03-19T13:04:40.022Z,11.50
2018-03-19T13:07:08.956Z,12.50
2018-03-19T13:09:37.900Z,11.93
2018-03-19T13:12:06.866Z,13.35
2018-03-19T13:14:35.795Z,13.25
2018-03-19T13:17:04.750Z,12.15
2018-03-19T13:19:33.716Z,10.93
2018-03-19T13:22:02.722Z,10.48
2018-03-19T13:24:31.721Z,11.70
2018-03-19T13:27:00.652Z,11.88
2018-03-19T13:29:29.560Z,9.20
2018-03-19T13:31:58.498Z,11.90
2018-03-19T13:34:27.908Z,15.18
2018-03-19T13:36:56.835Z,12.43
2018-03-19T13:39:25.822Z,12.90
2018-03-19T13:41:54.734Z,13.10
2018-03-19T13:44:23.673Z,12.55
2018-03-19T13:46:52.650Z,9.93
2018-03-19T13:49:21.621Z,13.40
2018-03-19T13:51:50.581Z,13.18
2018-03-19T13:54:19.562Z,12.73
2018-03-19T13:56:48.517Z,14.00
2018-03-19T13:59:17.510Z,14.43
2018-03-19T14:01:46.458Z,13.43
2018-03-19T14:04:15.369Z,14.07
2018-03-19T14:06:44.320Z,13.95
2018-03-19T14:09:13.253Z,15.20
2018-03-19T14:11:42.221Z,16.15
2018-03-19T14:14:11.425Z,16.05
2018-03-19T14:16:40.364Z,14.98
2018-03-19T14:19:10.249Z,13.23
2018-03-19T14:21:39.221Z,14.27
2018-03-19T14:24:08.162Z,13.13
2018-03-19T14:26:37.132Z,13.20
2018-03-19T14:29:06.092Z,14.55
2018-03-19T14:31:35.049Z,15.15
2018-03-19T14:34:04.258Z,15.07
2018-03-19T14:36:33.224Z,15.40
2018-03-19T14:39:02.456Z,17.02
2018-03-19T14:41:31.405Z,16.83
2018-03-19T14:44:00.367Z,16.62
2018-03-19T14:46:29.621Z,16.10
2018-03-19T14:48:58.585Z,15.55
2018-03-19T14:51:27.558Z,15.98
2018-03-19T14:53:56.501Z,17.37
2018-03-19T14:56:25.428Z,14.45
2018-03-19T14:58:54.376Z,13.38
2018-03-19T15:01:23.323Z,16.48
2018-03-19T15:03:52.374Z,14.75
2018-03-19T15:06:21.463Z,16.10
2018-03-19T15:08:50.438Z,13.73
2018-03-19T15:11:19.369Z,15.18
2018-03-19T15:13:48.363Z,15.27
2018-03-19T15:16:17.962Z,17.55
2018-03-19T15:18:46.899Z,16.12
2018-03-19T15:21:15.866Z,17.48
2018-03-19T15:23:44.800Z,16.02
2018-03-19T15:26:13.844Z,17.73
2018-03-19T15:28:42.771Z,19.52
2018-03-19T15:31:11.917Z,18.08
2018-03-19T15:33:40.917Z,17.83
2018-03-19T15:36:09.836Z,18.45
2018-03-19T15:38:38.758Z,16.10
2018-03-19T15:41:07.713Z,17.65
2018-03-19T15:43:36.672Z,13.23
2018-03-19T15:46:05.632Z,18.52
2018-03-19T15:48:34.590Z,17.30
2018-03-19T15:51:03.560Z,18.33
2018-03-19T15:53:32.747Z,18.10
2018-03-19T15:56:01.701Z,17.42
2018-03-19T15:58:30.924Z,17.05
2018-03-19T16:00:59.908Z,17.55
2018-03-19T16:03:28.816Z,14.60
2018-03-19T16:05:57.750Z,16.50
2018-03-19T16:08:26.943Z,16.33
2018-03-19T16:10:56.292Z,15.60
2018-03-19T16:13:25.507Z,17.85
2018-03-19T16:15:54.627Z,17.12
2018-03-19T16:18:23.782Z,17.40
2018-03-19T16:20:52.951Z,18.58
2018-03-19T16:23:31.046Z,18.12
2018-03-19T16:25:59.984Z,16.37
2018-03-19T16:28:28.895Z,18.23
2018-03-19T16:30:57.838Z,17.87
2018-03-19T16:33:26.988Z,22.15
2018-03-19T16:35:55.944Z,26.80
2018-03-19T16:38:24.895Z,22.77
2018-03-19T16:40:53.880Z,21.67
2018-03-19T16:43:22.886Z,18.90
2018-03-19T16:45:51.944Z,18.12
2018-03-19T16:48:20.933Z,18.23
2018-03-19T16:50:49.912Z,24.27
2018-03-19T16:53:19.684Z,25.77
2018-03-19T16:55:48.675Z,25.12
2018-03-19T16:58:17.627Z,22.25
2018-03-19T17:00:46.823Z,21.10
2018-03-19T17:03:15.823Z,17.83
2018-03-19T17:05:44.753Z,18.73
2018-03-19T17:08:13.711Z,19.10
2018-03-19T17:16:41.623Z,23.60
2018-03-19T17:19:23.499Z,21.37
2018-03-19T17:22:08.307Z,21.67
2018-03-19T17:30:11.863Z,21.50
2018-03-19T17:38:21.307Z,21.85
2018-03-19T17:41:04.462Z,24.40
2018-03-19T17:57:39.385Z,22.62
2018-03-19T18:00:26.390Z,25.77
2018-03-19T18:03:09.010Z,25.25
2018-03-19T18:19:35.600Z,41.92
2018-03-19T18:27:53.948Z,42.25
2018-03-19T18:30:36.897Z,53.67
2018-03-19T18:38:49.837Z,62.28
2018-03-19T18:41:28.678Z,48.65
2018-03-19T18:44:15.014Z,58.83
2018-03-19T19:00:43.407Z,33.92
2018-03-19T19:09:00.745Z,27.95
2018-03-19T19:14:17.124Z,23.80
2018-03-19T19:16:46.019Z,22.73
2018-03-19T19:19:14.931Z,22.92
2018-03-19T19:21:43.955Z,22.67
2018-03-19T19:24:12.888Z,25.33
2018-03-19T19:26:41.974Z,26.20
2018-03-19T19:29:10.916Z,25.92
2018-03-19T19:31:39.922Z,26.92
2018-03-19T19:34:09.017Z,34.58
2018-03-19T19:36:37.916Z,28.38
2018-03-19T19:39:06.846Z,30.75
2018-03-19T19:41:35.919Z,32.90
2018-03-19T19:44:04.916Z,35.90
2018-03-19T19:46:33.832Z,32.22
2018-03-19T19:49:02.787Z,34.90
2018-03-19T19:51:31.793Z,35.25
2018-03-19T19:54:00.806Z,36.67
2018-03-19T19:56:29.766Z,25.92
2018-03-19T19:58:58.778Z,25.15
2018-03-19T20:01:27.697Z,28.75
2018-03-19T20:03:56.642Z,25.83
2018-03-19T20:06:26.227Z,26.30
2018-03-19T20:08:55.124Z,26.40
2018-03-19T20:11:24.058Z,26.85
2018-03-19T20:13:52.956Z,26.12
2018-03-19T20:16:21.924Z,27.92
2018-03-19T20:18:50.830Z,27.10
2018-03-19T20:21:19.728Z,28.48
2018-03-19T20:23:48.660Z,28.75
2018-03-19T20:26:17.583Z,28.85
2018-03-19T20:28:46.520Z,29.42
2018-03-19T20:31:15.424Z,30.37
2018-03-19T20:33:44.389Z,32.72
2018-03-19T20:36:13.305Z,33.15
2018-03-19T20:38:42.270Z,30.80
2018-03-19T20:41:11.198Z,29.10
2018-03-19T20:43:40.107Z,28.52
2018-03-19T20:46:09.027Z,27.15
2018-03-19T20:48:37.949Z,25.58
2018-03-19T20:51:06.891Z,28.08
2018-03-19T20:53:35.796Z,28.45
2018-03-19T20:56:04.727Z,28.15
2018-03-19T20:58:33.630Z,21.30
2018-03-19T21:01:02.529Z,22.83
2018-03-19T21:03:31.479Z,25.75
2018-03-19T21:06:00.403Z,23.65
2018-03-19T21:08:29.363Z,23.75
2018-03-19T21:10:58.291Z,25.02
2018-03-19T21:13:27.216Z,29.73
2018-03-19T21:15:56.171Z,36.20
2018-03-19T21:18:25.077Z,36.13
2018-03-19T21:20:53.989Z,30.50
2018-03-19T21:23:22.899Z,28.33
2018-03-19T21:25:51.806Z,27.75
2018-03-19T21:28:20.784Z,32.30
2018-03-19T21:30:49.710Z,37.50
2018-03-19T21:33:18.611Z,38.22
2018-03-19T21:35:47.588Z,38.78
2018-03-19T21:38:16.508Z,30.70
2018-03-19T21:40:45.419Z,27.55
2018-03-19T21:43:14.362Z,27.48
2018-03-19T21:45:43.292Z,26.90
2018-03-19T21:48:12.232Z,28.42
2018-03-19T21:50:41.134Z,28.12
2018-03-19T21:53:10.043Z,26.80
2018-03-19T21:55:39.059Z,30.17
2018-03-19T21:58:07.964Z,26.60
2018-03-19T22:00:36.896Z,25.85
2018-03-19T22:03:05.852Z,25.75
2018-03-19T22:05:34.742Z,25.95
2018-03-19T22:08:03.662Z,25.90
2018-03-19T22:10:32.558Z,23.87
2018-03-19T22:13:01.497Z,27.65
2018-03-19T22:15:30.555Z,24.08
2018-03-19T22:17:59.501Z,26.05
2018-03-19T22:20:28.444Z,26.00
2018-03-19T22:22:57.379Z,23.35
2018-03-19T22:25:26.369Z,23.87
2018-03-19T22:27:55.285Z,25.02
2018-03-19T22:30:24.196Z,24.17
2018-03-19T22:32:53.160Z,24.08
2018-03-19T22:35:22.263Z,22.10
2018-03-19T22:37:51.171Z,24.77
2018-03-19T22:40:20.091Z,24.20
2018-03-19T22:42:49.025Z,26.15
2018-03-19T22:45:17.948Z,25.80
2018-03-19T22:47:47.222Z,24.02
2018-03-19T22:50:16.701Z,24.17
2018-03-19T22:52:45.638Z,26.12
2018-03-19T22:55:14.686Z,31.25
2018-03-19T22:57:43.595Z,25.60
2018-03-19T23:00:12.565Z,26.92
2018-03-19T23:02:41.504Z,27.40
2018-03-19T23:05:25.188Z,26.10
2018-03-19T23:07:54.092Z,22.42
2018-03-19T23:10:23.000Z,21.37
2018-03-19T23:12:52.055Z,26.00
2018-03-19T23:15:20.947Z,25.65
2018-03-19T23:17:49.890Z,23.85
2018-03-19T23:20:18.855Z,22.27
2018-03-19T23:22:47.811Z,22.05
2018-03-19T23:25:16.936Z,24.27
2018-03-19T23:27:45.886Z,22.62
2018-03-19T23:30:14.834Z,23.83
2018-03-19T23:32:43.829Z,22.73
2018-03-19T23:35:12.768Z,23.90
2018-03-19T23:37:41.718Z,22.30
2018-03-19T23:40:10.650Z,22.95
2018-03-19T23:42:39.554Z,22.30
2018-03-19T23:45:08.506Z,23.45
2018-03-19T23:47:37.426Z,21.20
2018-03-19T23:50:06.346Z,21.30
2018-03-19T23:52:35.306Z,22.90
2018-03-19T23:55:04.208Z,23.58
2018-03-19T23:57:33.172Z,20.85
